Time;durP1;ratioP1;P1;durP2;ratioP2;P2;SDS_P1;SDS_P2;PMS_P1;PMS_P2;Temp;Humidity;BMP_temperature;BMP_pressure;BME280_temperature;BME280_humidity;BME280_pressure;Samples;Min_cycle;Max_cycle;Signal;HPM_P1;HPM_P2
2023/08/29 00:05:19;;;;;;;3.92;2.60;;;14.20;61.50;;;;;;20836059;28;20434;-44
2023/08/29 00:15:20;;;;;;;4.50;3.08;;;14.10;68.70;;;;;;20834212;28;20037;-44
2023/08/29 00:25:20;;;;;;;3.95;2.80;;;14.00;71.90;;;;;;20832132;28;20099;-44
2023/08/29 00:35:21;;;;;;;4.38;2.92;;;13.90;74.10;;;;;;20834410;28;20041;-43
2023/08/29 00:45:22;;;;;;;4.72;3.13;;;13.90;78.90;;;;;;20831548;28;20072;-43
2023/08/29 00:55:24;;;;;;;4.90;3.38;;;13.90;80.30;;;;;;20831200;28;20136;-44
2023/08/29 01:05:24;;;;;;;5.47;3.60;;;13.80;74.90;;;;;;20833069;28;20041;-44
2023/08/29 01:15:29;;;;;;;5.50;3.10;;;13.80;59.20;;;;;;20831224;28;20094;-44
2023/08/29 01:25:52;;;;;;;3.42;2.55;;;13.60;73.40;;;;;;20831396;28;20048;-42
2023/08/29 01:35:52;;;;;;;5.40;3.25;;;13.50;84.40;;;;;;20847678;28;20045;-44
2023/08/29 01:45:53;;;;;;;4.15;2.80;;;13.50;95.40;;;;;;20845338;28;20048;-44
2023/08/29 01:55:55;;;;;;;5.93;3.20;;;13.40;96.20;;;;;;20844424;28;20683;-44
2023/08/29 02:05:56;;;;;;;5.07;2.80;;;13.40;91.50;;;;;;20844429;28;20086;-44
2023/08/29 02:15:56;;;;;;;4.95;2.90;;;13.30;93.40;;;;;;20841254;28;20396;-44
2023/08/29 02:26:04;;;;;;;4.57;3.00;;;13.30;91.80;;;;;;20842179;28;20040;-44
2023/08/29 02:36:05;;;;;;;;;;;13.20;92.30;;;;;;20843365;28;20045;-44
2023/08/29 02:46:06;;;;;;;5.07;2.70;;;13.10;88.40;;;;;;20839658;28;19921;-44
2023/08/29 02:56:07;;;;;;;3.75;2.45;;;13.00;91.30;;;;;;20840664;28;20497;-44
2023/08/29 03:06:07;;;;;;;3.90;2.30;;;13.00;87.90;;;;;;20838996;28;20122;-44
2023/08/29 03:16:13;;;;;;;5.97;2.70;;;12.90;87.90;;;;;;20838559;28;20112;-43
2023/08/29 03:26:13;;;;;;;3.90;2.40;;;12.80;94.70;;;;;;20838037;28;20785;-44
2023/08/29 03:36:14;;;;;;;4.30;2.42;;;12.70;94.00;;;;;;20838116;28;20580;-43
2023/08/29 03:46:14;;;;;;;5.50;2.60;;;12.70;95.70;;;;;;20836279;28;20623;-43
2023/08/29 03:56:16;;;;;;;5.55;2.28;;;12.70;96.40;;;;;;20834776;28;20037;-44
2023/08/29 04:06:20;;;;;;;4.05;2.30;;;12.70;97.50;;;;;;20833848;28;20040;-44
2023/08/29 04:16:21;;;;;;;4.90;2.83;;;12.80;99.90;;;;;;20835436;28;20071;-44
2023/08/29 04:26:22;;;;;;;7.90;3.20;;;12.80;99.90;;;;;;20833500;28;20042;-43
2023/08/29 04:36:22;;;;;;;6.15;3.75;;;13.10;99.90;;;;;;20833269;28;20399;-43
2023/08/29 04:46:23;;;;;;;4.28;2.58;;;13.50;99.90;;;;;;20832345;28;20045;-44
2023/08/29 04:56:23;;;;;;;5.47;3.42;;;13.50;99.90;;;;;;20831796;28;20041;-44
2023/08/29 05:06:25;;;;;;;5.38;3.42;;;13.50;99.90;;;;;;20840233;28;20073;-43
2023/08/29 05:16:26;;;;;;;6.57;4.85;;;13.40;99.90;;;;;;20849515;28;20399;-44
2023/08/29 05:26:26;;;;;;;6.43;3.30;;;13.30;99.90;;;;;;20846436;28;20150;-44
2023/08/29 05:36:27;;;;;;;5.20;3.65;;;13.30;99.90;;;;;;20846828;28;20049;-44
2023/08/29 05:46:27;;;;;;;7.45;3.75;;;13.30;99.90;;;;;;20846794;28;20052;-44
2023/08/29 05:56:28;;;;;;;7.45;4.20;;;13.50;99.90;;;;;;20845590;28;20070;-44
2023/08/29 06:06:29;;;;;;;9.95;5.85;;;13.70;99.90;;;;;;20844494;28;20056;-44
2023/08/29 06:16:29;;;;;;;8.40;5.25;;;14.10;99.90;;;;;;20843725;28;20493;-43
2023/08/29 06:26:30;;;;;;;8.98;4.72;;;14.40;99.90;;;;;;20842458;28;20045;-43
2023/08/29 06:36:31;;;;;;;7.22;4.75;;;14.80;99.90;;;;;;20841688;28;20056;-43
2023/08/29 06:46:31;;;;;;;7.57;3.80;;;15.00;99.90;;;;;;20842328;28;20036;-44
2023/08/29 06:56:32;;;;;;;8.38;4.80;;;15.00;99.90;;;;;;20840194;28;20143;-43
2023/08/29 07:06:32;;;;;;;6.65;3.60;;;15.10;99.90;;;;;;20840142;28;20035;-44
2023/08/29 07:16:33;;;;;;;7.97;5.00;;;15.30;99.90;;;;;;20839301;28;20546;-44
2023/08/29 07:26:33;;;;;;;9.63;4.10;;;15.40;99.90;;;;;;20835534;28;20040;-43
2023/08/29 07:36:34;;;;;;;6.25;4.35;;;15.70;78.50;;;;;;20836950;28;20504;-43
2023/08/29 07:46:34;;;;;;;5.55;3.67;;;16.00;22.20;;;;;;20837020;28;20443;-44
2023/08/29 07:56:35;;;;;;;7.28;3.95;;;16.30;13.70;;;;;;20835127;28;20052;-44
2023/08/29 08:06:35;;;;;;;6.65;4.45;;;16.50;1.00;;;;;;20835500;28;20037;-44
2023/08/29 08:16:36;;;;;;;6.78;3.55;;;16.80;1.00;;;;;;20834377;28;20508;-44
2023/08/29 08:26:36;;;;;;;5.88;3.42;;;17.10;1.00;;;;;;20816296;28;20119;-43
2023/08/29 08:36:38;;;;;;;5.95;3.10;;;17.20;1.00;;;;;;20831663;28;20045;-44
2023/08/29 08:46:39;;;;;;;7.68;4.70;;;17.40;1.00;;;;;;20831990;28;20445;-44
2023/08/29 08:56:40;;;;;;;4.80;2.80;;;17.80;1.00;;;;;;20831719;28;20044;-44
2023/08/29 09:06:41;;;;;;;3.67;2.40;;;18.10;1.00;;;;;;20814485;28;20397;-44
2023/08/29 09:16:42;;;;;;;3.67;2.10;;;18.40;1.00;;;;;;20831560;28;20064;-44
2023/08/29 09:26:43;;;;;;;3.80;2.28;;;18.60;1.00;;;;;;20831648;28;20063;-44
2023/08/29 09:36:44;;;;;;;4.65;3.30;;;18.90;1.00;;;;;;20830521;28;20053;-44
2023/08/29 09:46:45;;;;;;;5.70;4.28;;;19.50;1.00;;;;;;20830256;28;20068;-44
2023/08/29 09:56:45;;;;;;;5.68;4.70;;;20.00;1.00;;;;;;20844123;28;20045;-44
2023/08/29 10:06:49;;;;;;;7.43;4.35;;;20.50;1.00;;;;;;20843761;28;20088;-44
2023/08/29 10:16:50;;;;;;;5.03;4.47;;;20.10;1.00;;;;;;20844506;28;20048;-44
2023/08/29 10:26:51;;;;;;;8.15;7.22;;;20.10;1.00;;;;;;20842945;28;20531;-44
2023/08/29 10:36:52;;;;;;;6.85;5.80;;;20.50;1.00;;;;;;20842982;28;20455;-44
2023/08/29 10:46:52;;;;;;;8.50;7.35;;;20.70;1.00;;;;;;20841844;28;20051;-44
2023/08/29 10:56:56;;;;;;;7.40;6.10;;;21.00;1.00;;;;;;20837306;28;20037;-44
2023/08/29 11:06:57;;;;;;;9.38;8.38;;;21.10;1.00;;;;;;20837094;28;20102;-44
2023/08/29 11:17:12;;;;;;;7.35;6.65;;;20.80;1.00;;;;;;20838281;28;20029;-44
2023/08/29 11:27:16;;;;;;;7.35;6.22;;;21.40;1.00;;;;;;20836753;28;20047;-44
2023/08/29 11:37:16;;;;;;;9.30;7.38;;;21.90;1.00;;;;;;20837590;28;20041;-43
2023/08/29 11:47:17;;;;;;;6.88;5.43;;;22.20;1.00;;;;;;20836784;28;20052;-43
2023/08/29 11:57:17;;;;;;;4.13;3.35;;;22.50;1.00;;;;;;20836340;28;20029;-44
2023/08/29 12:07:18;;;;;;;6.03;4.38;;;23.10;1.00;;;;;;20826951;28;20048;-44
2023/08/29 12:17:19;;;;;;;8.50;6.60;;;22.40;1.00;;;;;;20834646;28;20459;-43
2023/08/29 12:27:20;;;;;;;8.95;7.80;;;21.80;1.00;;;;;;20832526;28;20560;-43
2023/08/29 12:37:21;;;;;;;10.07;8.23;;;21.40;1.00;;;;;;20834856;28;20491;-43
2023/08/29 12:47:22;;;;;;;9.85;8.85;;;20.80;1.00;;;;;;20833904;28;20076;-43
2023/08/29 12:57:22;;;;;;;9.55;7.70;;;20.50;1.00;;;;;;20830304;28;20087;-43
2023/08/29 13:07:23;;;;;;;9.05;7.43;;;20.20;1.00;;;;;;20832060;28;20044;-43
2023/08/29 13:17:23;;;;;;;5.55;4.13;;;19.90;1.00;;;;;;20832225;28;20598;-43
2023/08/29 13:27:24;;;;;;;4.65;3.55;;;19.40;1.00;;;;;;20839962;28;20037;-43
2023/08/29 13:37:24;;;;;;;5.73;3.03;;;18.30;1.00;;;;;;20846382;28;20041;-43
2023/08/29 13:47:25;;;;;;;4.05;2.85;;;17.70;1.00;;;;;;20846813;28;20478;-44
2023/08/29 13:57:25;;;;;;;3.67;2.67;;;17.30;1.00;;;;;;20844098;28;20041;-44
2023/08/29 14:07:26;;;;;;;6.78;3.17;;;17.10;1.00;;;;;;20844941;28;20053;-44
2023/08/29 14:17:27;;;;;;;6.70;2.85;;;17.10;1.00;;;;;;20828402;28;20029;-43
2023/08/29 14:27:27;;;;;;;4.93;2.60;;;17.40;1.00;;;;;;20841559;28;20456;-43
2023/08/29 14:37:28;;;;;;;6.43;2.92;;;17.90;1.00;;;;;;20842390;28;20042;-43
2023/08/29 14:47:28;;;;;;;3.83;2.60;;;18.50;1.00;;;;;;20840784;28;20515;-43
2023/08/29 14:57:29;;;;;;;5.63;2.83;;;18.90;1.00;;;;;;20839938;28;20033;-43
2023/08/29 15:07:30;;;;;;;5.30;2.13;;;19.10;1.00;;;;;;20839618;28;20489;-43
2023/08/29 15:17:30;;;;;;;4.28;2.20;;;19.50;1.00;;;;;;20842049;28;20040;-43
2023/08/29 15:27:31;;;;;;;3.47;1.60;;;19.80;1.00;;;;;;20838673;28;20040;-43
2023/08/29 15:37:32;;;;;;;3.38;1.70;;;19.80;1.00;;;;;;20838291;28;20562;-43
2023/08/29 15:47:32;;;;;;;4.43;1.73;;;19.60;1.00;;;;;;20836488;28;20080;-43
2023/08/29 15:57:33;;;;;;;5.63;2.05;;;19.70;1.00;;;;;;20835876;28;20097;-44
2023/08/29 16:07:34;;;;;;;3.97;1.63;;;19.90;1.00;;;;;;20835542;28;20522;-43
2023/08/29 16:17:34;;;;;;;3.95;1.80;;;19.40;1.00;;;;;;20837587;28;20080;-43
2023/08/29 16:27:35;;;;;;;2.83;1.70;;;19.60;1.00;;;;;;20833374;28;20095;-44
2023/08/29 16:37:37;;;;;;;4.78;1.95;;;19.40;1.00;;;;;;20834531;28;20579;-43
2023/08/29 16:47:39;;;;;;;3.13;1.80;;;19.30;1.00;;;;;;20832758;28;20517;-44
2023/08/29 16:57:41;;;;;;;3.90;1.95;;;19.00;1.00;;;;;;20830469;28;20064;-43
2023/08/29 17:07:41;;;;;;;3.83;2.13;;;18.80;1.00;;;;;;20833282;28;20049;-43
2023/08/29 17:17:42;;;;;;;3.80;2.47;;;18.60;1.00;;;;;;20833190;28;20051;-43
2023/08/29 17:27:42;;;;;;;3.72;1.90;;;18.40;1.00;;;;;;20830474;28;20572;-43
2023/08/29 17:37:43;;;;;;;4.37;2.30;;;18.30;1.00;;;;;;20829400;28;20468;-44
2023/08/29 17:47:44;;;;;;;5.27;2.17;;;17.90;1.00;;;;;;20830026;28;20045;-43
2023/08/29 17:57:45;;;;;;;5.70;3.13;;;17.70;1.00;;;;;;20830648;28;21260;-43
2023/08/29 18:07:46;;;;;;;5.07;2.58;;;17.50;1.00;;;;;;20829727;28;20178;-44
2023/08/29 18:17:46;;;;;;;6.50;3.17;;;17.30;1.00;;;;;;20843344;28;20100;-43
2023/08/29 18:27:47;;;;;;;6.00;3.42;;;17.10;1.00;;;;;;20843314;28;20045;-43
2023/08/29 18:37:47;;;;;;;5.07;3.17;;;16.80;1.00;;;;;;20842989;28;20174;-43
2023/08/29 18:47:48;;;;;;;5.82;3.97;;;16.40;1.00;;;;;;20837691;28;20051;-43
2023/08/29 18:57:48;;;;;;;7.67;4.70;;;16.00;1.00;;;;;;20840673;28;20033;-43
2023/08/29 19:07:49;;;;;;;5.95;4.18;;;15.80;1.00;;;;;;20840825;28;20492;-44
2023/08/29 19:17:50;;;;;;;6.20;4.18;;;15.60;1.00;;;;;;20838815;28;20478;-43
2023/08/29 19:27:54;;;;;;;5.80;4.07;;;15.30;1.00;;;;;;20837412;28;20048;-44
2023/08/29 19:37:55;;;;;;;9.48;4.88;;;15.20;1.00;;;;;;20838672;28;20044;-44
2023/08/29 19:47:55;;;;;;;6.80;5.03;;;15.00;1.00;;;;;;20835990;28;20047;-43
2023/08/29 19:57:56;;;;;;;7.03;4.95;;;14.80;1.00;;;;;;20835107;28;20029;-43
2023/08/29 20:07:57;;;;;;;8.30;5.38;;;14.70;1.00;;;;;;20834362;28;20408;-43
2023/08/29 20:17:57;;;;;;;6.57;4.80;;;14.70;1.00;;;;;;20834728;28;20537;-44
2023/08/29 20:27:58;;;;;;;10.00;5.95;;;14.70;1.00;;;;;;20832047;28;20098;-43
2023/08/29 20:37:59;;;;;;;11.53;6.90;;;14.70;1.00;;;;;;20831927;28;20507;-43
2023/08/29 20:47:59;;;;;;;8.30;6.32;;;14.90;1.00;;;;;;20833006;28;21073;-44
2023/08/29 20:58:00;;;;;;;9.32;5.90;;;15.20;1.00;;;;;;20832315;28;20397;-43
2023/08/29 21:08:01;;;;;;;8.85;5.60;;;15.40;1.00;;;;;;20831918;28;20075;-43
2023/08/29 21:18:01;;;;;;;6.83;5.30;;;15.40;1.00;;;;;;20831366;28;20523;-44
2023/08/29 21:28:02;;;;;;;7.07;5.32;;;15.60;1.00;;;;;;20831346;28;20769;-44
2023/08/29 21:38:03;;;;;;;9.32;4.90;;;15.80;1.00;;;;;;20830532;28;20045;-43
2023/08/29 21:48:05;;;;;;;8.07;5.85;;;15.70;1.00;;;;;;20838960;28;20049;-43
2023/08/29 21:58:07;;;;;;;6.47;4.95;;;15.70;1.00;;;;;;20845669;28;20029;-44
2023/08/29 22:08:08;;;;;;;7.30;4.70;;;15.70;1.00;;;;;;20843412;28;20043;-43
2023/08/29 22:18:08;;;;;;;7.03;4.88;;;15.60;1.00;;;;;;20844647;28;20422;-44
2023/08/29 22:28:09;;;;;;;7.07;4.90;;;15.50;1.00;;;;;;20844396;28;20049;-44
2023/08/29 22:38:10;;;;;;;7.30;5.35;;;15.40;1.00;;;;;;20843048;28;20087;-43
2023/08/29 22:48:11;;;;;;;7.55;5.72;;;15.20;1.00;;;;;;20842182;28;20068;-44
2023/08/29 22:58:11;;;;;;;7.32;5.55;;;15.10;1.00;;;;;;20839224;28;20033;-43
2023/08/29 23:08:12;;;;;;;7.10;5.70;;;15.00;1.00;;;;;;20839633;28;20049;-44
2023/08/29 23:18:13;;;;;;;7.35;5.63;;;14.80;1.00;;;;;;20839349;28;20043;-43
2023/08/29 23:28:13;;;;;;;8.63;5.63;;;14.80;1.00;;;;;;20837296;28;20555;-43
2023/08/29 23:38:15;;;;;;;7.43;5.00;;;14.80;1.00;;;;;;20839057;28;20138;-43
2023/08/29 23:48:17;;;;;;;8.88;6.63;;;14.70;1.00;;;;;;20836390;28;20502;-43
2023/08/29 23:58:18;;;;;;;8.32;5.95;;;14.70;1.00;;;;;;20835264;28;20057;-43
